sensor_id;sensor_type;location;lat;lon;timestamp;temperature;humidity
6556;DHT22;3311;48.32423000;14.29074500;2023-03-14T00:01:51;12.10;61.30
6556;DHT22;3311;48.32423000;14.29074500;2023-03-14T00:04:19;12.10;61.50
6556;DHT22;3311;48.32423000;14.29074500;2023-03-14T00:06:46;12.20;61.60
6556;DHT22;3311;48.32423000;14.29074500;2023-03-14T00:09:15;12.10;61.30
6556;DHT22;3311;48.32423000;14.29074500;2023-03-14T00:11:42;12.10;61.10
6556;DHT22;3311;48.32423000;14.29074500;2023-03-14T00:14:10;12.00;61.20
6556;DHT22;3311;48.32423000;14.29074500;2023-03-14T00:16:39;12.00;61.50
6556;DHT22;3311;48.32423000;14.29074500;2023-03-14T00:19:06;12.00;61.80
6556;DHT22;3311;48.32423000;14.29074500;2023-03-14T00:21:34;12.10;61.60
6556;DHT22;3311;48.32423000;14.29074500;2023-03-14T00:24:01;12.00;61.50
6556;DHT22;3311;48.32423000;14.29074500;2023-03-14T00:26:28;12.00;61.60
6556;DHT22;3311;48.32423000;14.29074500;2023-03-14T00:28:56;12.00;61.70
6556;DHT22;3311;48.32423000;14.29074500;2023-03-14T00:31:23;11.90;61.60
6556;DHT22;3311;48.32423000;14.29074500;2023-03-14T00:33:53;11.90;61.60
6556;DHT22;3311;48.32423000;14.29074500;2023-03-14T00:36:22;12.00;61.50
6556;DHT22;3311;48.32423000;14.29074500;2023-03-14T00:38:51;11.90;61.40
6556;DHT22;3311;48.32423000;14.29074500;2023-03-14T00:41:20;12.00;62.20
6556;DHT22;3311;48.32423000;14.29074500;2023-03-14T00:43:50;12.10;61.60
6556;DHT22;3311;48.32423000;14.29074500;2023-03-14T00:46:17;12.00;61.60
6556;DHT22;3311;48.32423000;14.29074500;2023-03-14T00:48:45;12.00;61.80
6556;DHT22;3311;48.32423000;14.29074500;2023-03-14T00:51:15;12.00;62.00
6556;DHT22;3311;48.32423000;14.29074500;2023-03-14T00:53:42;11.90;61.70
6556;DHT22;3311;48.32423000;14.29074500;2023-03-14T00:56:11;11.90;61.90
6556;DHT22;3311;48.32423000;14.29074500;2023-03-14T00:58:39;11.80;62.00
6556;DHT22;3311;48.32423000;14.29074500;2023-03-14T01:01:08;11.80;62.10
6556;DHT22;3311;48.32423000;14.29074500;2023-03-14T01:03:36;11.80;62.00
6556;DHT22;3311;48.32423000;14.29074500;2023-03-14T01:06:08;11.80;62.60
6556;DHT22;3311;48.32423000;14.29074500;2023-03-14T01:08:37;11.80;62.40
6556;DHT22;3311;48.32423000;14.29074500;2023-03-14T01:11:10;11.80;62.50
6556;DHT22;3311;48.32423000;14.29074500;2023-03-14T01:13:39;11.80;62.60
6556;DHT22;3311;48.32423000;14.29074500;2023-03-14T01:16:09;11.80;62.70
6556;DHT22;3311;48.32423000;14.29074500;2023-03-14T01:18:38;11.70;63.30
6556;DHT22;3311;48.32423000;14.29074500;2023-03-14T01:21:12;11.80;62.80
6556;DHT22;3311;48.32423000;14.29074500;2023-03-14T01:23:41;11.80;62.60
6556;DHT22;3311;48.32423000;14.29074500;2023-03-14T01:26:09;11.70;62.40
6556;DHT22;3311;48.32423000;14.29074500;2023-03-14T01:28:37;11.70;62.40
6556;DHT22;3311;48.32423000;14.29074500;2023-03-14T01:31:05;11.70;62.60
6556;DHT22;3311;48.32423000;14.29074500;2023-03-14T01:33:33;11.70;62.60
6556;DHT22;3311;48.32423000;14.29074500;2023-03-14T01:36:00;11.70;62.80
6556;DHT22;3311;48.32423000;14.29074500;2023-03-14T01:38:28;11.60;62.70
6556;DHT22;3311;48.32423000;14.29074500;2023-03-14T01:40:57;11.60;62.80
6556;DHT22;3311;48.32423000;14.29074500;2023-03-14T01:43:25;11.60;63.20
6556;DHT22;3311;48.32423000;14.29074500;2023-03-14T01:49:09;11.60;62.90
6556;DHT22;3311;48.32423000;14.29074500;2023-03-14T01:51:42;11.60;62.90
6556;DHT22;3311;48.32423000;14.29074500;2023-03-14T01:54:16;11.60;62.80
6556;DHT22;3311;48.32423000;14.29074500;2023-03-14T01:56:50;11.60;62.70
6556;DHT22;3311;48.32423000;14.29074500;2023-03-14T01:59:18;11.70;62.60
6556;DHT22;3311;48.32423000;14.29074500;2023-03-14T02:01:47;11.70;62.60
6556;DHT22;3311;48.32423000;14.29074500;2023-03-14T02:04:17;11.60;62.40
6556;DHT22;3311;48.32423000;14.29074500;2023-03-14T02:06:55;11.60;62.40
6556;DHT22;3311;48.32423000;14.29074500;2023-03-14T02:09:24;11.60;62.30
6556;DHT22;3311;48.32423000;14.29074500;2023-03-14T02:11:53;11.60;62.30
6556;DHT22;3311;48.32423000;14.29074500;2023-03-14T02:14:27;11.60;62.30
6556;DHT22;3311;48.32423000;14.29074500;2023-03-14T02:16:55;11.60;62.30
6556;DHT22;3311;48.32423000;14.29074500;2023-03-14T02:19:32;11.60;62.50
6556;DHT22;3311;48.32423000;14.29074500;2023-03-14T02:22:06;11.60;62.50
6556;DHT22;3311;48.32423000;14.29074500;2023-03-14T02:24:40;11.60;62.60
6556;DHT22;3311;48.32423000;14.29074500;2023-03-14T02:27:14;11.60;62.60
6556;DHT22;3311;48.32423000;14.29074500;2023-03-14T02:29:48;11.60;62.50
6556;DHT22;3311;48.32423000;14.29074500;2023-03-14T02:32:17;11.50;62.60
6556;DHT22;3311;48.32423000;14.29074500;2023-03-14T02:34:48;11.40;62.80
6556;DHT22;3311;48.32423000;14.29074500;2023-03-14T02:37:18;11.40;62.90
6556;DHT22;3311;48.32423000;14.29074500;2023-03-14T02:39:46;11.50;63.00
6556;DHT22;3311;48.32423000;14.29074500;2023-03-14T02:42:16;11.50;63.00
6556;DHT22;3311;48.32423000;14.29074500;2023-03-14T02:44:54;11.50;62.90
6556;DHT22;3311;48.32423000;14.29074500;2023-03-14T02:47:27;11.50;62.90
6556;DHT22;3311;48.32423000;14.29074500;2023-03-14T02:49:59;11.60;63.00
6556;DHT22;3311;48.32423000;14.29074500;2023-03-14T02:52:29;11.50;63.00
6556;DHT22;3311;48.32423000;14.29074500;2023-03-14T02:54:57;11.50;63.20
6556;DHT22;3311;48.32423000;14.29074500;2023-03-14T02:57:26;11.50;63.30
6556;DHT22;3311;48.32423000;14.29074500;2023-03-14T02:59:53;11.50;63.50
6556;DHT22;3311;48.32423000;14.29074500;2023-03-14T03:02:20;11.50;63.50
6556;DHT22;3311;48.32423000;14.29074500;2023-03-14T03:04:48;11.40;63.50
6556;DHT22;3311;48.32423000;14.29074500;2023-03-14T03:07:15;11.50;63.70
6556;DHT22;3311;48.32423000;14.29074500;2023-03-14T03:09:42;11.50;63.70
6556;DHT22;3311;48.32423000;14.29074500;2023-03-14T03:12:10;11.50;63.50
6556;DHT22;3311;48.32423000;14.29074500;2023-03-14T03:14:39;11.50;63.50
6556;DHT22;3311;48.32423000;14.29074500;2023-03-14T03:17:06;11.50;63.60
6556;DHT22;3311;48.32423000;14.29074500;2023-03-14T03:19:34;11.60;63.50
6556;DHT22;3311;48.32423000;14.29074500;2023-03-14T03:22:02;11.60;63.40
6556;DHT22;3311;48.32423000;14.29074500;2023-03-14T03:24:29;11.70;63.50
6556;DHT22;3311;48.32423000;14.29074500;2023-03-14T03:26:56;11.80;63.50
6556;DHT22;3311;48.32423000;14.29074500;2023-03-14T03:29:24;11.70;63.50
6556;DHT22;3311;48.32423000;14.29074500;2023-03-14T03:31:53;11.80;63.50
6556;DHT22;3311;48.32423000;14.29074500;2023-03-14T03:34:21;11.70;63.50
6556;DHT22;3311;48.32423000;14.29074500;2023-03-14T03:36:48;11.60;63.80
6556;DHT22;3311;48.32423000;14.29074500;2023-03-14T03:39:15;11.60;64.00
6556;DHT22;3311;48.32423000;14.29074500;2023-03-14T03:41:42;11.60;64.10
6556;DHT22;3311;48.32423000;14.29074500;2023-03-14T03:44:10;11.60;64.20
6556;DHT22;3311;48.32423000;14.29074500;2023-03-14T03:46:38;11.50;64.20
6556;DHT22;3311;48.32423000;14.29074500;2023-03-14T03:49:07;11.50;64.20
6556;DHT22;3311;48.32423000;14.29074500;2023-03-14T03:51:34;11.60;64.10
6556;DHT22;3311;48.32423000;14.29074500;2023-03-14T03:54:01;11.60;64.60
6556;DHT22;3311;48.32423000;14.29074500;2023-03-14T03:56:28;11.60;64.30
6556;DHT22;3311;48.32423000;14.29074500;2023-03-14T03:58:57;11.60;64.50
6556;DHT22;3311;48.32423000;14.29074500;2023-03-14T04:01:24;11.70;64.30
6556;DHT22;3311;48.32423000;14.29074500;2023-03-14T04:03:51;11.60;64.50
6556;DHT22;3311;48.32423000;14.29074500;2023-03-14T04:06:20;11.60;64.50
6556;DHT22;3311;48.32423000;14.29074500;2023-03-14T04:08:47;11.60;64.50
6556;DHT22;3311;48.32423000;14.29074500;2023-03-14T04:11:15;11.70;64.60
6556;DHT22;3311;48.32423000;14.29074500;2023-03-14T04:13:42;11.70;64.50
6556;DHT22;3311;48.32423000;14.29074500;2023-03-14T04:16:16;11.70;64.20
6556;DHT22;3311;48.32423000;14.29074500;2023-03-14T04:18:43;11.70;64.50
6556;DHT22;3311;48.32423000;14.29074500;2023-03-14T04:21:11;11.70;64.40
6556;DHT22;3311;48.32423000;14.29074500;2023-03-14T04:23:39;11.60;64.30
6556;DHT22;3311;48.32423000;14.29074500;2023-03-14T04:26:07;11.60;64.60
6556;DHT22;3311;48.32423000;14.29074500;2023-03-14T04:28:34;11.60;64.50
6556;DHT22;3311;48.32423000;14.29074500;2023-03-14T04:31:07;11.70;64.50
6556;DHT22;3311;48.32423000;14.29074500;2023-03-14T04:33:35;11.80;64.20
6556;DHT22;3311;48.32423000;14.29074500;2023-03-14T04:36:04;11.80;64.00
6556;DHT22;3311;48.32423000;14.29074500;2023-03-14T04:38:32;11.90;64.10
6556;DHT22;3311;48.32423000;14.29074500;2023-03-14T04:41:01;11.80;64.00
6556;DHT22;3311;48.32423000;14.29074500;2023-03-14T04:43:29;11.80;64.10
6556;DHT22;3311;48.32423000;14.29074500;2023-03-14T04:45:57;13.40;65.70
6556;DHT22;3311;48.32423000;14.29074500;2023-03-14T04:48:25;11.80;64.20
6556;DHT22;3311;48.32423000;14.29074500;2023-03-14T04:50:53;12.00;64.10
6556;DHT22;3311;48.32423000;14.29074500;2023-03-14T04:53:21;12.10;63.80
6556;DHT22;3311;48.32423000;14.29074500;2023-03-14T04:55:49;12.20;63.60
6556;DHT22;3311;48.32423000;14.29074500;2023-03-14T04:58:18;12.20;63.40
6556;DHT22;3311;48.32423000;14.29074500;2023-03-14T05:00:46;12.30;63.30
6556;DHT22;3311;48.32423000;14.29074500;2023-03-14T05:03:14;12.20;63.50
6556;DHT22;3311;48.32423000;14.29074500;2023-03-14T05:05:42;12.10;63.90
6556;DHT22;3311;48.32423000;14.29074500;2023-03-14T05:08:10;12.10;63.80
6556;DHT22;3311;48.32423000;14.29074500;2023-03-14T05:10:37;12.10;64.20
6556;DHT22;3311;48.32423000;14.29074500;2023-03-14T05:13:04;12.00;64.50
6556;DHT22;3311;48.32423000;14.29074500;2023-03-14T05:15:33;11.90;65.30
6556;DHT22;3311;48.32423000;14.29074500;2023-03-14T05:18:00;11.80;65.80
6556;DHT22;3311;48.32423000;14.29074500;2023-03-14T05:20:27;11.80;66.60
6556;DHT22;3311;48.32423000;14.29074500;2023-03-14T05:22:55;11.70;66.80
6556;DHT22;3311;48.32423000;14.29074500;2023-03-14T05:25:22;11.70;67.30
6556;DHT22;3311;48.32423000;14.29074500;2023-03-14T05:27:49;11.70;67.80
6556;DHT22;3311;48.32423000;14.29074500;2023-03-14T05:30:16;11.60;68.20
6556;DHT22;3311;48.32423000;14.29074500;2023-03-14T05:32:45;11.70;68.40
6556;DHT22;3311;48.32423000;14.29074500;2023-03-14T05:35:12;11.60;68.50
6556;DHT22;3311;48.32423000;14.29074500;2023-03-14T05:37:40;11.60;68.80
6556;DHT22;3311;48.32423000;14.29074500;2023-03-14T05:40:08;11.60;69.10
6556;DHT22;3311;48.32423000;14.29074500;2023-03-14T05:42:36;11.70;69.40
6556;DHT22;3311;48.32423000;14.29074500;2023-03-14T05:45:04;11.70;69.30
6556;DHT22;3311;48.32423000;14.29074500;2023-03-14T05:47:31;11.80;69.50
6556;DHT22;3311;48.32423000;14.29074500;2023-03-14T05:50:00;11.80;69.80
6556;DHT22;3311;48.32423000;14.29074500;2023-03-14T05:52:28;11.70;70.20
6556;DHT22;3311;48.32423000;14.29074500;2023-03-14T05:54:55;11.70;70.00
6556;DHT22;3311;48.32423000;14.29074500;2023-03-14T05:57:22;11.70;70.70
6556;DHT22;3311;48.32423000;14.29074500;2023-03-14T05:59:50;11.70;70.60
6556;DHT22;3311;48.32423000;14.29074500;2023-03-14T06:02:17;11.70;70.90
6556;DHT22;3311;48.32423000;14.29074500;2023-03-14T06:04:44;11.70;71.10
6556;DHT22;3311;48.32423000;14.29074500;2023-03-14T06:07:13;11.80;70.90
6556;DHT22;3311;48.32423000;14.29074500;2023-03-14T06:09:41;11.70;71.00
6556;DHT22;3311;48.32423000;14.29074500;2023-03-14T06:12:08;11.80;71.10
6556;DHT22;3311;48.32423000;14.29074500;2023-03-14T06:14:35;11.80;71.00
6556;DHT22;3311;48.32423000;14.29074500;2023-03-14T06:17:02;11.80;71.50
6556;DHT22;3311;48.32423000;14.29074500;2023-03-14T06:19:30;11.80;71.60
6556;DHT22;3311;48.32423000;14.29074500;2023-03-14T06:21:57;11.90;71.60
6556;DHT22;3311;48.32423000;14.29074500;2023-03-14T06:24:26;11.90;71.30
6556;DHT22;3311;48.32423000;14.29074500;2023-03-14T06:26:53;11.90;71.70
6556;DHT22;3311;48.32423000;14.29074500;2023-03-14T06:29:20;11.90;71.90
6556;DHT22;3311;48.32423000;14.29074500;2023-03-14T06:31:47;11.90;72.00
6556;DHT22;3311;48.32423000;14.29074500;2023-03-14T06:34:15;12.00;71.90
6556;DHT22;3311;48.32423000;14.29074500;2023-03-14T06:36:42;12.10;72.00
6556;DHT22;3311;48.32423000;14.29074500;2023-03-14T06:39:09;12.20;71.60
6556;DHT22;3311;48.32423000;14.29074500;2023-03-14T06:41:38;12.30;71.70
6556;DHT22;3311;48.32423000;14.29074500;2023-03-14T06:44:05;12.40;70.90
6556;DHT22;3311;48.32423000;14.29074500;2023-03-14T06:46:33;12.40;71.00
6556;DHT22;3311;48.32423000;14.29074500;2023-03-14T06:49:00;12.50;70.60
6556;DHT22;3311;48.32423000;14.29074500;2023-03-14T06:51:27;12.50;70.80
6556;DHT22;3311;48.32423000;14.29074500;2023-03-14T06:53:54;12.60;70.30
6556;DHT22;3311;48.32423000;14.29074500;2023-03-14T06:56:22;12.70;70.20
6556;DHT22;3311;48.32423000;14.29074500;2023-03-14T06:58:50;12.70;70.60
6556;DHT22;3311;48.32423000;14.29074500;2023-03-14T07:01:21;12.60;71.10
6556;DHT22;3311;48.32423000;14.29074500;2023-03-14T07:03:49;12.60;71.10
6556;DHT22;3311;48.32423000;14.29074500;2023-03-14T07:06:17;12.60;71.20
6556;DHT22;3311;48.32423000;14.29074500;2023-03-14T07:08:44;12.60;71.60
6556;DHT22;3311;48.32423000;14.29074500;2023-03-14T07:11:11;12.60;71.20
6556;DHT22;3311;48.32423000;14.29074500;2023-03-14T07:13:39;12.60;71.70
6556;DHT22;3311;48.32423000;14.29074500;2023-03-14T07:16:09;12.70;72.00
6556;DHT22;3311;48.32423000;14.29074500;2023-03-14T07:18:36;12.60;72.20
6556;DHT22;3311;48.32423000;14.29074500;2023-03-14T07:21:04;12.60;72.10
6556;DHT22;3311;48.32423000;14.29074500;2023-03-14T07:23:31;12.70;72.20
6556;DHT22;3311;48.32423000;14.29074500;2023-03-14T07:25:59;12.60;72.30
6556;DHT22;3311;48.32423000;14.29074500;2023-03-14T07:28:26;12.70;72.20
6556;DHT22;3311;48.32423000;14.29074500;2023-03-14T07:30:54;12.70;72.20
6556;DHT22;3311;48.32423000;14.29074500;2023-03-14T07:33:23;12.70;72.60
6556;DHT22;3311;48.32423000;14.29074500;2023-03-14T07:35:50;12.70;72.60
6556;DHT22;3311;48.32423000;14.29074500;2023-03-14T07:38:17;12.80;72.60
6556;DHT22;3311;48.32423000;14.29074500;2023-03-14T07:40:45;12.80;72.50
6556;DHT22;3311;48.32423000;14.29074500;2023-03-14T07:43:12;12.80;72.30
6556;DHT22;3311;48.32423000;14.29074500;2023-03-14T07:45:39;12.90;72.30
6556;DHT22;3311;48.32423000;14.29074500;2023-03-14T07:48:06;12.90;72.60
6556;DHT22;3311;48.32423000;14.29074500;2023-03-14T07:50:35;12.90;72.30
6556;DHT22;3311;48.32423000;14.29074500;2023-03-14T07:53:02;12.80;72.60
6556;DHT22;3311;48.32423000;14.29074500;2023-03-14T07:55:29;12.80;72.50
6556;DHT22;3311;48.32423000;14.29074500;2023-03-14T07:57:56;12.90;72.60
6556;DHT22;3311;48.32423000;14.29074500;2023-03-14T08:00:24;12.90;72.10
6556;DHT22;3311;48.32423000;14.29074500;2023-03-14T08:02:51;13.00;72.10
6556;DHT22;3311;48.32423000;14.29074500;2023-03-14T08:05:18;13.00;72.40
6556;DHT22;3311;48.32423000;14.29074500;2023-03-14T08:07:47;13.00;72.20
6556;DHT22;3311;48.32423000;14.29074500;2023-03-14T08:10:15;13.00;72.40
6556;DHT22;3311;48.32423000;14.29074500;2023-03-14T08:12:48;13.10;72.50
6556;DHT22;3311;48.32423000;14.29074500;2023-03-14T08:15:15;13.10;72.30
6556;DHT22;3311;48.32423000;14.29074500;2023-03-14T08:17:43;13.10;72.80
6556;DHT22;3311;48.32423000;14.29074500;2023-03-14T08:20:11;13.20;72.20
6556;DHT22;3311;48.32423000;14.29074500;2023-03-14T08:22:39;13.30;72.70
6556;DHT22;3311;48.32423000;14.29074500;2023-03-14T08:25:08;13.30;73.20
6556;DHT22;3311;48.32423000;14.29074500;2023-03-14T08:27:36;13.30;72.60
6556;DHT22;3311;48.32423000;14.29074500;2023-03-14T08:30:06;13.20;72.90
6556;DHT22;3311;48.32423000;14.29074500;2023-03-14T08:32:33;13.20;72.80
6556;DHT22;3311;48.32423000;14.29074500;2023-03-14T08:35:01;13.30;72.80
6556;DHT22;3311;48.32423000;14.29074500;2023-03-14T08:37:28;13.20;72.80
6556;DHT22;3311;48.32423000;14.29074500;2023-03-14T08:39:55;13.30;72.70
6556;DHT22;3311;48.32423000;14.29074500;2023-03-14T08:42:24;13.30;72.10
6556;DHT22;3311;48.32423000;14.29074500;2023-03-14T08:44:52;13.30;72.20
6556;DHT22;3311;48.32423000;14.29074500;2023-03-14T08:47:19;13.30;72.30
6556;DHT22;3311;48.32423000;14.29074500;2023-03-14T08:49:46;13.30;72.20
6556;DHT22;3311;48.32423000;14.29074500;2023-03-14T08:52:13;13.30;72.30
6556;DHT22;3311;48.32423000;14.29074500;2023-03-14T08:54:44;13.30;72.00
6556;DHT22;3311;48.32423000;14.29074500;2023-03-14T08:57:11;13.30;72.20
6556;DHT22;3311;48.32423000;14.29074500;2023-03-14T08:59:40;13.30;72.30
6556;DHT22;3311;48.32423000;14.29074500;2023-03-14T09:02:09;13.30;72.20
6556;DHT22;3311;48.32423000;14.29074500;2023-03-14T09:04:37;13.30;72.50
6556;DHT22;3311;48.32423000;14.29074500;2023-03-14T09:07:04;13.30;72.40
6556;DHT22;3311;48.32423000;14.29074500;2023-03-14T09:09:31;13.30;72.00
6556;DHT22;3311;48.32423000;14.29074500;2023-03-14T09:11:59;13.40;71.80
6556;DHT22;3311;48.32423000;14.29074500;2023-03-14T09:14:26;13.30;71.70
6556;DHT22;3311;48.32423000;14.29074500;2023-03-14T09:16:56;13.30;71.80
6556;DHT22;3311;48.32423000;14.29074500;2023-03-14T09:19:23;13.30;71.80
6556;DHT22;3311;48.32423000;14.29074500;2023-03-14T09:21:50;13.30;71.60
6556;DHT22;3311;48.32423000;14.29074500;2023-03-14T09:24:17;13.30;71.40
6556;DHT22;3311;48.32423000;14.29074500;2023-03-14T09:26:44;13.30;71.20
6556;DHT22;3311;48.32423000;14.29074500;2023-03-14T09:29:12;13.40;71.20
6556;DHT22;3311;48.32423000;14.29074500;2023-03-14T09:31:39;13.30;71.00
6556;DHT22;3311;48.32423000;14.29074500;2023-03-14T09:34:08;13.40;70.90
6556;DHT22;3311;48.32423000;14.29074500;2023-03-14T09:36:35;13.40;71.00
6556;DHT22;3311;48.32423000;14.29074500;2023-03-14T09:39:03;13.40;71.00
6556;DHT22;3311;48.32423000;14.29074500;2023-03-14T09:41:33;13.40;70.80
6556;DHT22;3311;48.32423000;14.29074500;2023-03-14T09:44:05;13.40;70.80
6556;DHT22;3311;48.32423000;14.29074500;2023-03-14T09:46:36;13.40;70.80
6556;DHT22;3311;48.32423000;14.29074500;2023-03-14T09:49:10;13.40;70.40
6556;DHT22;3311;48.32423000;14.29074500;2023-03-14T09:51:40;13.40;70.40
6556;DHT22;3311;48.32423000;14.29074500;2023-03-14T09:54:23;13.40;70.60
6556;DHT22;3311;48.32423000;14.29074500;2023-03-14T09:56:54;13.40;70.80
6556;DHT22;3311;48.32423000;14.29074500;2023-03-14T09:59:21;13.40;70.80
6556;DHT22;3311;48.32423000;14.29074500;2023-03-14T10:01:49;13.40;70.80
6556;DHT22;3311;48.32423000;14.29074500;2023-03-14T10:04:21;13.40;70.90
6556;DHT22;3311;48.32423000;14.29074500;2023-03-14T10:06:50;13.40;70.90
6556;DHT22;3311;48.32423000;14.29074500;2023-03-14T10:09:20;13.40;70.60
6556;DHT22;3311;48.32423000;14.29074500;2023-03-14T10:11:53;13.50;70.70
6556;DHT22;3311;48.32423000;14.29074500;2023-03-14T10:14:33;13.50;70.60
6556;DHT22;3311;48.32423000;14.29074500;2023-03-14T10:17:08;13.50;70.70
6556;DHT22;3311;48.32423000;14.29074500;2023-03-14T10:19:51;13.50;70.80
6556;DHT22;3311;48.32423000;14.29074500;2023-03-14T10:22:20;13.50;70.60
6556;DHT22;3311;48.32423000;14.29074500;2023-03-14T10:24:52;13.50;70.70
6556;DHT22;3311;48.32423000;14.29074500;2023-03-14T10:27:21;13.50;71.00
6556;DHT22;3311;48.32423000;14.29074500;2023-03-14T10:29:54;13.50;70.40
6556;DHT22;3311;48.32423000;14.29074500;2023-03-14T10:32:27;13.50;70.60
6556;DHT22;3311;48.32423000;14.29074500;2023-03-14T10:35:11;13.60;70.70
6556;DHT22;3311;48.32423000;14.29074500;2023-03-14T10:37:53;13.60;70.70
6556;DHT22;3311;48.32423000;14.29074500;2023-03-14T10:40:27;13.60;70.50
6556;DHT22;3311;48.32423000;14.29074500;2023-03-14T10:42:57;13.60;70.40
6556;DHT22;3311;48.32423000;14.29074500;2023-03-14T10:45:34;13.60;70.20
6556;DHT22;3311;48.32423000;14.29074500;2023-03-14T10:48:17;13.60;70.50
6556;DHT22;3311;48.32423000;14.29074500;2023-03-14T10:50:54;13.60;70.20
6556;DHT22;3311;48.32423000;14.29074500;2023-03-14T10:53:22;13.60;70.10
6556;DHT22;3311;48.32423000;14.29074500;2023-03-14T10:55:50;13.60;70.00
6556;DHT22;3311;48.32423000;14.29074500;2023-03-14T10:58:26;13.60;69.70
6556;DHT22;3311;48.32423000;14.29074500;2023-03-14T11:01:01;13.60;69.80
6556;DHT22;3311;48.32423000;14.29074500;2023-03-14T11:03:31;14.30;70.60
6556;DHT22;3311;48.32423000;14.29074500;2023-03-14T11:06:08;13.60;70.10
6556;DHT22;3311;48.32423000;14.29074500;2023-03-14T11:08:48;13.60;69.80
6556;DHT22;3311;48.32423000;14.29074500;2023-03-14T11:11:19;13.60;69.80
6556;DHT22;3311;48.32423000;14.29074500;2023-03-14T11:13:59;13.60;69.70
6556;DHT22;3311;48.32423000;14.29074500;2023-03-14T11:16:34;13.60;69.70
6556;DHT22;3311;48.32423000;14.29074500;2023-03-14T11:19:18;13.60;69.80
6556;DHT22;3311;48.32423000;14.29074500;2023-03-14T11:21:53;13.60;69.80
6556;DHT22;3311;48.32423000;14.29074500;2023-03-14T11:24:37;13.60;70.00
6556;DHT22;3311;48.32423000;14.29074500;2023-03-14T11:27:13;13.60;70.10
6556;DHT22;3311;48.32423000;14.29074500;2023-03-14T11:29:51;13.60;70.10
6556;DHT22;3311;48.32423000;14.29074500;2023-03-14T11:32:31;13.60;70.00
6556;DHT22;3311;48.32423000;14.29074500;2023-03-14T11:35:04;13.60;69.70
6556;DHT22;3311;48.32423000;14.29074500;2023-03-14T11:37:38;13.60;69.80
6556;DHT22;3311;48.32423000;14.29074500;2023-03-14T11:40:13;13.60;70.00
6556;DHT22;3311;48.32423000;14.29074500;2023-03-14T11:42:43;13.60;70.10
6556;DHT22;3311;48.32423000;14.29074500;2023-03-14T11:45:16;13.60;69.60
6556;DHT22;3311;48.32423000;14.29074500;2023-03-14T11:47:49;13.70;69.90
6556;DHT22;3311;48.32423000;14.29074500;2023-03-14T11:50:20;13.70;69.90
6556;DHT22;3311;48.32423000;14.29074500;2023-03-14T11:52:53;13.70;69.60
6556;DHT22;3311;48.32423000;14.29074500;2023-03-14T11:55:26;13.60;69.60
6556;DHT22;3311;48.32423000;14.29074500;2023-03-14T11:57:58;13.70;69.50
6556;DHT22;3311;48.32423000;14.29074500;2023-03-14T12:00:27;13.70;69.30
6556;DHT22;3311;48.32423000;14.29074500;2023-03-14T12:02:59;13.80;69.10
6556;DHT22;3311;48.32423000;14.29074500;2023-03-14T12:05:51;13.80;68.80
6556;DHT22;3311;48.32423000;14.29074500;2023-03-14T12:08:33;13.70;69.20
6556;DHT22;3311;48.32423000;14.29074500;2023-03-14T12:11:14;13.70;69.60
6556;DHT22;3311;48.32423000;14.29074500;2023-03-14T12:13:47;13.80;69.30
6556;DHT22;3311;48.32423000;14.29074500;2023-03-14T12:16:33;13.90;69.40
6556;DHT22;3311;48.32423000;14.29074500;2023-03-14T12:19:37;13.90;68.70
6556;DHT22;3311;48.32423000;14.29074500;2023-03-14T12:22:24;13.90;68.50
6556;DHT22;3311;48.32423000;14.29074500;2023-03-14T12:24:58;13.90;68.40
6556;DHT22;3311;48.32423000;14.29074500;2023-03-14T12:27:48;13.90;68.50
6556;DHT22;3311;48.32423000;14.29074500;2023-03-14T12:30:24;13.90;68.20
6556;DHT22;3311;48.32423000;14.29074500;2023-03-14T12:33:26;13.90;68.30
6556;DHT22;3311;48.32423000;14.29074500;2023-03-14T12:39:13;13.90;68.20
6556;DHT22;3311;48.32423000;14.29074500;2023-03-14T12:41:51;13.90;68.00
6556;DHT22;3311;48.32423000;14.29074500;2023-03-14T12:44:46;13.90;68.00
6556;DHT22;3311;48.32423000;14.29074500;2023-03-14T12:50:18;13.90;67.90
6556;DHT22;3311;48.32423000;14.29074500;2023-03-14T12:53:07;13.90;68.60
6556;DHT22;3311;48.32423000;14.29074500;2023-03-14T12:55:42;13.90;67.70
6556;DHT22;3311;48.32423000;14.29074500;2023-03-14T12:58:17;13.90;67.40
6556;DHT22;3311;48.32423000;14.29074500;2023-03-14T13:00:54;13.90;67.40
6556;DHT22;3311;48.32423000;14.29074500;2023-03-14T13:03:24;14.00;67.30
6556;DHT22;3311;48.32423000;14.29074500;2023-03-14T13:05:55;14.00;67.30
6556;DHT22;3311;48.32423000;14.29074500;2023-03-14T13:08:38;14.00;67.20
6556;DHT22;3311;48.32423000;14.29074500;2023-03-14T13:11:09;13.90;67.30
6556;DHT22;3311;48.32423000;14.29074500;2023-03-14T13:13:42;13.90;67.30
6556;DHT22;3311;48.32423000;14.29074500;2023-03-14T13:16:16;14.00;67.10
6556;DHT22;3311;48.32423000;14.29074500;2023-03-14T13:18:45;14.00;67.60
6556;DHT22;3311;48.32423000;14.29074500;2023-03-14T13:21:15;14.00;67.00
6556;DHT22;3311;48.32423000;14.29074500;2023-03-14T13:23:56;13.90;67.10
6556;DHT22;3311;48.32423000;14.29074500;2023-03-14T13:26:26;13.90;67.30
6556;DHT22;3311;48.32423000;14.29074500;2023-03-14T13:29:00;13.90;67.50
6556;DHT22;3311;48.32423000;14.29074500;2023-03-14T13:31:28;14.00;67.30
6556;DHT22;3311;48.32423000;14.29074500;2023-03-14T13:34:00;14.00;67.60
6556;DHT22;3311;48.32423000;14.29074500;2023-03-14T13:36:27;14.00;67.20
6556;DHT22;3311;48.32423000;14.29074500;2023-03-14T13:38:56;14.00;67.40
6556;DHT22;3311;48.32423000;14.29074500;2023-03-14T13:41:25;14.00;67.20
6556;DHT22;3311;48.32423000;14.29074500;2023-03-14T13:44:01;14.00;68.50
6556;DHT22;3311;48.32423000;14.29074500;2023-03-14T13:46:29;13.90;69.10
6556;DHT22;3311;48.32423000;14.29074500;2023-03-14T13:48:59;13.90;69.30
6556;DHT22;3311;48.32423000;14.29074500;2023-03-14T13:51:28;13.90;69.10
6556;DHT22;3311;48.32423000;14.29074500;2023-03-14T13:53:58;13.90;68.40
6556;DHT22;3311;48.32423000;14.29074500;2023-03-14T13:56:26;13.90;68.70
6556;DHT22;3311;48.32423000;14.29074500;2023-03-14T13:58:55;13.90;68.40
6556;DHT22;3311;48.32423000;14.29074500;2023-03-14T14:01:25;13.90;68.20